Sepang, Malaysia
Current Conditions -  °F | °C
As of 6:30 AM on Tuesday 25 Nov 2014 (Local Time) from WMKK Reporting Station
Broken Clouds Broken Clouds  
Wind Chill: 75°   Ceiling: 27000
Heat Index: 75°   Visibility: 4mi
Dew Point: 75°   Wind: 1mph
Humidity: 100%   Direction: 360°N
Pressure: 29.77"   Gusts: NA
Location:  2.69°N, 101.76°E
Report Text: WMKK 242230Z 36001KT 7000 FEW000 FEW017CB SCT140 BKN270 24/24 Q1008 NOSIG
Loading
Personal Weather Stations






























Interactive Weather Map New forecast layout! Learn more

10-Day Weather Forecast

Advertisements
Track Severe Weather on mobile